Time;durP1;ratioP1;P1;durP2;ratioP2;P2;SDS_P1;SDS_P2;PMS_P1;PMS_P2;Temp;Humidity;BMP_temperature;BMP_pressure;BME280_temperature;BME280_humidity;BME280_pressure;Samples;Min_cycle;Max_cycle;Signal;HPM_P1;HPM_P2
2023/10/15 00:00:15;;;;;;;6.30;2.47;;;9.90;99.90;;;;;;5014670;28;20581;-73
2023/10/15 00:02:42;;;;;;;6.65;1.92;;;9.90;99.90;;;;;;5011934;28;20030;-72
2023/10/15 00:05:15;;;;;;;6.20;2.58;;;9.90;99.90;;;;;;5015059;28;20037;-73
2023/10/15 00:07:48;;;;;;;7.22;2.30;;;9.90;99.90;;;;;;5014237;28;20057;-72
2023/10/15 00:10:15;;;;;;;7.05;1.92;;;10.00;99.90;;;;;;5014341;28;20542;-72
2023/10/15 00:12:46;;;;;;;5.55;1.90;;;10.00;99.90;;;;;;5014692;28;20018;-73
2023/10/15 00:15:19;;;;;;;3.90;1.92;;;10.00;99.90;;;;;;5014723;28;20026;-72
2023/10/15 00:17:46;;;;;;;6.95;2.10;;;10.00;99.90;;;;;;5015279;28;20034;-73
2023/10/15 00:20:19;;;;;;;8.55;2.17;;;10.00;99.90;;;;;;5014875;28;20057;-72
2023/10/15 00:22:50;;;;;;;5.72;1.90;;;10.00;99.90;;;;;;4985060;28;20472;-73
2023/10/15 00:25:19;;;;;;;6.15;2.17;;;10.00;99.90;;;;;;5014616;28;20109;-72
2023/10/15 00:27:59;;;;;;;6.50;1.83;;;10.00;99.90;;;;;;5014336;28;20120;-72
2023/10/15 00:30:32;;;;;;;6.32;2.10;;;10.10;99.90;;;;;;5014340;28;20025;-72
2023/10/15 00:32:58;;;;;;;7.35;1.67;;;10.10;99.90;;;;;;5014187;28;20114;-72
2023/10/15 00:35:27;;;;;;;6.07;1.52;;;10.10;99.90;;;;;;5014198;28;20033;-71
2023/10/15 00:37:55;;;;;;;8.18;1.50;;;10.10;99.90;;;;;;5014454;28;20037;-73
2023/10/15 00:40:23;;;;;;;4.55;1.25;;;10.10;99.90;;;;;;5014136;28;20037;-72
2023/10/15 00:42:48;;;;;;;6.18;2.05;;;10.10;99.90;;;;;;5014567;28;20026;-72
2023/10/15 00:45:15;;;;;;;3.97;1.58;;;10.10;99.90;;;;;;4996313;28;20113;-72
2023/10/15 00:47:51;;;;;;;5.88;1.20;;;10.00;99.90;;;;;;5014012;28;20049;-72
2023/10/15 00:50:23;;;;;;;6.45;1.50;;;10.10;99.90;;;;;;4995497;28;20045;-72
2023/10/15 00:52:49;;;;;;;7.22;1.60;;;10.00;99.90;;;;;;5013468;28;20066;-72
2023/10/15 00:55:19;;;;;;;6.05;1.20;;;10.00;99.90;;;;;;5013367;28;20064;-72
2023/10/15 00:57:47;;;;;;;8.07;1.52;;;10.00;99.90;;;;;;5013998;28;20029;-71
2023/10/15 01:03:07;;;;;;;5.25;1.77;;;9.90;99.90;;;;;;5013111;28;20017;-72
2023/10/15 01:05:44;;;;;;;4.40;1.42;;;9.90;99.90;;;;;;5012021;28;20022;-72
2023/10/15 01:08:10;;;;;;;8.15;1.75;;;9.90;99.90;;;;;;5013973;28;20018;-71
2023/10/15 01:10:49;;;;;;;6.72;1.70;;;9.80;99.90;;;;;;5013691;28;20022;-72
2023/10/15 01:13:21;;;;;;;4.68;1.75;;;9.80;99.90;;;;;;5014187;28;20209;-72
2023/10/15 01:15:53;;;;;;;5.20;1.60;;;9.80;99.90;;;;;;5013953;28;20033;-72
2023/10/15 01:18:19;;;;;;;8.18;2.45;;;9.90;99.90;;;;;;5013174;28;20026;-72
2023/10/15 01:20:47;;;;;;;4.63;1.90;;;9.80;99.90;;;;;;5014088;28;20083;-72
2023/10/15 01:23:28;;;;;;;5.68;1.60;;;9.80;99.90;;;;;;5013341;28;20037;-72
2023/10/15 01:26:16;;;;;;;6.72;1.88;;;9.80;99.90;;;;;;5013845;28;20108;-72
2023/10/15 01:28:43;;;;;;;7.25;1.77;;;9.80;99.90;;;;;;5014001;28;20036;-72
2023/10/15 01:34:37;;;;;;;9.00;1.77;;;9.80;99.90;;;;;;5012111;28;20037;-72
2023/10/15 01:37:15;;;;;;;10.60;2.08;;;9.80;99.90;;;;;;5012801;28;20028;-72
2023/10/15 01:39:47;;;;;;;7.30;2.03;;;9.90;99.90;;;;;;5011107;28;20034;-71
2023/10/15 01:42:32;;;;;;;6.45;1.65;;;9.80;99.90;;;;;;5012917;28;20065;-72
2023/10/15 01:47:45;;;;;;;4.80;1.80;;;9.80;99.90;;;;;;5013307;28;20512;-73
2023/10/15 01:50:15;;;;;;;3.58;1.15;;;9.80;99.90;;;;;;5012632;28;20030;-73
2023/10/15 01:52:43;;;;;;;8.63;1.30;;;9.80;99.90;;;;;;5012602;28;20157;-73
2023/10/15 01:55:13;;;;;;;6.63;1.75;;;9.70;99.90;;;;;;5012895;28;20037;-73
2023/10/15 01:57:41;;;;;;;4.53;1.27;;;9.70;99.90;;;;;;5011173;28;20028;-72
2023/10/15 02:00:14;;;;;;;3.53;1.27;;;9.80;99.90;;;;;;5012771;28;20586;-73
2023/10/15 02:02:43;;;;;;;2.20;1.25;;;9.70;99.90;;;;;;5012904;28;20018;-72
2023/10/15 02:05:40;;;;;;;3.08;1.25;;;9.80;99.90;;;;;;5012842;28;20046;-72
2023/10/15 02:08:25;;;;;;;6.07;1.45;;;9.70;99.90;;;;;;5012521;28;20026;-73
2023/10/15 02:10:52;;;;;;;;;;;9.80;99.90;;;;;;5013214;28;20104;-73
2023/10/15 02:13:19;;;;;;;5.97;1.35;;;9.80;99.90;;;;;;5012594;28;19906;-73
2023/10/15 02:15:55;;;;;;;7.75;2.00;;;9.80;99.90;;;;;;5015477;28;20076;-73
2023/10/15 02:18:21;;;;;;;7.18;1.80;;;9.70;99.90;;;;;;5016067;28;20033;-73
2023/10/15 02:23:20;;;;;;;3.72;1.40;;;9.70;99.90;;;;;;5016154;28;20433;-72
2023/10/15 02:26:00;;;;;;;6.63;1.48;;;9.80;99.90;;;;;;5016703;28;20026;-72
2023/10/15 02:28:27;;;;;;;3.53;1.52;;;9.70;99.90;;;;;;4996967;28;20058;-73
2023/10/15 02:31:10;;;;;;;3.63;1.42;;;9.70;99.90;;;;;;4996579;28;20026;-72
2023/10/15 02:33:36;;;;;;;7.28;1.60;;;9.80;99.90;;;;;;4979135;28;20503;-73
2023/10/15 02:36:08;;;;;;;5.10;1.92;;;9.70;99.90;;;;;;4996130;28;20061;-73
2023/10/15 02:38:37;;;;;;;7.07;2.08;;;9.70;99.90;;;;;;4977920;28;20038;-73
2023/10/15 02:41:05;;;;;;;4.30;1.27;;;9.70;99.90;;;;;;4977727;28;20022;-73
2023/10/15 02:43:32;;;;;;;4.80;1.60;;;9.70;99.90;;;;;;4996078;28;20030;-73
2023/10/15 02:46:01;;;;;;;7.05;1.30;;;9.70;99.90;;;;;;4996230;28;20022;-73
2023/10/15 02:48:31;;;;;;;6.25;1.48;;;9.60;99.90;;;;;;4995850;28;20026;-73
2023/10/15 02:51:00;;;;;;;4.50;1.08;;;9.70;99.90;;;;;;4996163;28;20018;-74
2023/10/15 02:53:32;;;;;;;4.30;1.25;;;9.70;99.90;;;;;;4995752;28;20026;-73
2023/10/15 02:55:58;;;;;;;7.05;1.15;;;9.70;99.90;;;;;;4995878;28;20070;-74
2023/10/15 02:58:28;;;;;;;7.95;1.33;;;9.60;99.90;;;;;;4992460;23;20705;-77
2023/10/15 03:00:59;;;;;;;4.95;1.40;;;9.60;99.90;;;;;;4958436;28;20030;-77
2023/10/15 03:03:34;;;;;;;5.10;1.30;;;9.60;99.90;;;;;;4966587;28;20030;-76
2023/10/15 03:06:02;;;;;;;3.97;1.42;;;9.60;99.90;;;;;;4966893;28;20287;-75
2023/10/15 03:08:33;;;;;;;2.65;1.00;;;9.60;99.90;;;;;;4964259;28;20049;-75
2023/10/15 03:11:12;;;;;;;5.10;1.20;;;9.60;99.90;;;;;;4985994;28;20030;-76
2023/10/15 03:16:36;;;;;;;5.03;1.20;;;9.70;99.90;;;;;;4960006;28;20038;-76
2023/10/15 03:21:58;;;;;;;3.63;1.08;;;9.70;99.90;;;;;;4980018;28;20038;-76
2023/10/15 03:24:32;;;;;;;8.20;1.40;;;9.70;99.90;;;;;;4995388;28;20031;-76
2023/10/15 03:26:58;;;;;;;6.25;1.15;;;9.70;99.90;;;;;;4987447;28;20022;-76
2023/10/15 03:29:23;;;;;;;3.53;0.85;;;9.70;99.90;;;;;;4988838;28;20532;-76
2023/10/15 03:31:54;;;;;;;3.10;1.52;;;9.70;99.90;;;;;;4972279;28;20018;-77
2023/10/15 03:34:28;;;;;;;2.70;1.08;;;9.70;99.90;;;;;;4989250;28;20072;-76
2023/10/15 03:37:00;;;;;;;5.22;1.27;;;9.70;99.90;;;;;;4985852;28;20066;-76
2023/10/15 03:44:47;;;;;;;5.82;1.10;;;9.60;99.90;;;;;;4989510;28;20030;-76
2023/10/15 03:47:25;;;;;;;3.83;1.80;;;9.60;99.90;;;;;;4970322;28;20163;-74
2023/10/15 03:49:55;;;;;;;4.20;1.20;;;9.70;99.90;;;;;;4985579;28;20121;-75
2023/10/15 03:52:27;;;;;;;4.38;1.35;;;9.70;99.90;;;;;;4988190;28;20026;-73
2023/10/15 03:54:58;;;;;;;3.42;1.33;;;9.70;99.90;;;;;;4986871;28;20029;-76
2023/10/15 03:57:34;;;;;;;5.28;1.85;;;9.70;99.90;;;;;;4988943;28;20209;-76
2023/10/15 04:00:16;;;;;;;2.83;1.00;;;9.70;99.90;;;;;;4986836;28;20030;-76
2023/10/15 04:05:28;;;;;;;8.63;1.73;;;9.80;99.90;;;;;;4983274;28;20394;-76
2023/10/15 04:07:57;;;;;;;5.18;2.28;;;9.70;99.90;;;;;;4992518;28;20061;-76
2023/10/15 04:10:34;;;;;;;12.63;1.80;;;9.80;99.90;;;;;;4988403;28;20026;-76
2023/10/15 04:13:00;;;;;;;5.72;1.48;;;9.80;99.90;;;;;;4990442;28;20030;-77
2023/10/15 04:15:30;;;;;;;3.83;0.80;;;9.80;99.90;;;;;;4992054;28;20021;-77
2023/10/15 04:17:56;;;;;;;4.97;1.42;;;9.80;99.90;;;;;;4991945;28;20424;-77
2023/10/15 04:20:35;;;;;;;3.00;1.17;;;9.80;99.90;;;;;;4991789;28;20035;-77
2023/10/15 04:23:01;;;;;;;4.43;1.58;;;9.80;99.90;;;;;;4975615;28;20038;-76
2023/10/15 04:25:32;;;;;;;6.60;1.45;;;9.80;99.90;;;;;;4985118;28;20095;-74
2023/10/15 04:28:08;;;;;;;3.30;1.02;;;9.80;99.90;;;;;;4981655;28;20105;-75
2023/10/15 04:30:38;;;;;;;5.63;1.17;;;9.80;99.90;;;;;;4987967;28;20041;-76
2023/10/15 04:33:10;;;;;;;4.60;1.23;;;9.80;99.90;;;;;;4985815;28;20034;-76
2023/10/15 04:35:37;;;;;;;3.10;1.63;;;9.80;99.90;;;;;;4990999;28;20023;-76
2023/10/15 04:38:07;;;;;;;3.72;1.20;;;9.80;99.90;;;;;;4982487;28;20030;-76
2023/10/15 04:40:50;;;;;;;6.80;1.75;;;9.80;99.90;;;;;;4987387;28;20056;-76
2023/10/15 04:43:21;;;;;;;4.47;1.35;;;9.80;99.90;;;;;;4987277;28;20227;-76
2023/10/15 04:45:49;;;;;;;7.53;2.13;;;9.80;99.90;;;;;;4970961;28;20027;-76
2023/10/15 04:48:15;;;;;;;6.80;1.60;;;9.80;99.90;;;;;;4986903;28;20041;-75
2023/10/15 04:50:50;;;;;;;4.03;1.42;;;9.80;99.90;;;;;;4989907;28;20027;-74
2023/10/15 04:53:23;;;;;;;3.72;1.88;;;9.80;99.90;;;;;;4966189;28;20027;-75
2023/10/15 04:55:52;;;;;;;4.38;1.00;;;9.80;99.90;;;;;;4988210;28;20611;-74
2023/10/15 04:58:29;;;;;;;8.05;1.48;;;9.90;99.90;;;;;;4987562;28;20053;-75
2023/10/15 05:00:58;;;;;;;6.00;2.03;;;9.90;99.90;;;;;;4984368;28;20432;-75
2023/10/15 05:03:27;;;;;;;10.13;1.88;;;9.90;99.90;;;;;;4986169;28;20038;-75
2023/10/15 05:05:55;;;;;;;5.80;1.85;;;9.90;99.90;;;;;;4973147;28;20026;-76
2023/10/15 05:08:24;;;;;;;7.85;2.03;;;9.90;99.90;;;;;;4988545;28;20116;-76
2023/10/15 05:10:56;;;;;;;2.83;1.50;;;9.90;99.90;;;;;;4988021;28;20023;-76
2023/10/15 05:13:24;;;;;;;5.88;1.60;;;9.90;99.90;;;;;;4988251;28;20019;-76
2023/10/15 05:15:53;;;;;;;4.70;1.58;;;9.90;99.90;;;;;;4991648;28;20030;-76
2023/10/15 05:18:29;;;;;;;7.55;1.60;;;9.80;99.90;;;;;;4989252;28;20030;-77
2023/10/15 05:21:01;;;;;;;8.38;1.50;;;9.80;99.90;;;;;;4987605;28;20081;-78
2023/10/15 05:23:33;;;;;;;5.85;1.67;;;9.70;99.90;;;;;;4989792;28;20033;-77
2023/10/15 05:26:08;;;;;;;5.07;1.30;;;9.80;99.90;;;;;;4985877;28;20494;-77
2023/10/15 05:28:36;;;;;;;5.93;1.42;;;9.70;99.90;;;;;;4973068;28;20434;-77
2023/10/15 05:31:05;;;;;;;10.70;1.90;;;9.70;99.90;;;;;;4970223;28;20026;-77
2023/10/15 05:33:31;;;;;;;9.50;1.70;;;9.60;99.90;;;;;;4984879;28;20731;-77
2023/10/15 05:35:56;;;;;;;8.48;1.90;;;9.60;99.90;;;;;;4988101;28;20042;-77
2023/10/15 05:38:22;;;;;;;6.63;1.20;;;9.60;99.90;;;;;;4989366;28;20121;-76
2023/10/15 05:40:57;;;;;;;3.35;0.93;;;9.60;99.90;;;;;;4991528;28;20037;-75
2023/10/15 05:43:23;;;;;;;7.18;1.48;;;9.60;99.90;;;;;;4984910;28;20033;-76
2023/10/15 05:45:58;;;;;;;5.95;1.67;;;9.60;99.90;;;;;;4987039;28;20030;-78
2023/10/15 05:48:23;;;;;;;7.70;1.42;;;9.60;99.90;;;;;;4987857;28;20085;-74
2023/10/15 05:50:49;;;;;;;2.88;1.60;;;9.70;99.90;;;;;;4986733;28;20034;-74
2023/10/15 05:53:16;;;;;;;4.68;1.77;;;9.70;99.90;;;;;;4988718;28;20036;-76
2023/10/15 05:55:41;;;;;;;4.75;1.52;;;9.70;99.90;;;;;;4973824;28;20026;-74
2023/10/15 05:58:08;;;;;;;4.75;1.20;;;9.70;99.90;;;;;;4990508;28;20557;-75
2023/10/15 06:00:39;;;;;;;4.30;1.38;;;9.70;99.90;;;;;;4991755;28;20474;-76
2023/10/15 06:03:11;;;;;;;6.53;1.30;;;9.70;99.90;;;;;;4991487;28;20030;-76
2023/10/15 06:05:39;;;;;;;4.10;1.42;;;9.70;99.90;;;;;;4990318;28;21854;-76
2023/10/15 06:08:05;;;;;;;4.40;1.38;;;9.70;99.90;;;;;;4993868;28;20042;-76
2023/10/15 06:10:34;;;;;;;4.72;1.70;;;9.70;99.90;;;;;;4991839;28;20421;-76
2023/10/15 06:13:03;;;;;;;5.68;0.90;;;9.70;99.90;;;;;;4972998;28;20034;-77
2023/10/15 06:15:35;;;;;;;4.63;1.65;;;9.70;99.90;;;;;;4989945;28;20026;-76
2023/10/15 06:18:00;;;;;;;6.35;1.00;;;9.70;99.90;;;;;;4988661;28;20464;-77
2023/10/15 06:20:26;;;;;;;4.22;0.95;;;9.70;99.90;;;;;;4989373;28;20053;-76
2023/10/15 06:23:04;;;;;;;3.22;0.90;;;9.70;99.90;;;;;;4997624;28;20030;-77
2023/10/15 06:25:30;;;;;;;3.65;0.80;;;9.70;99.90;;;;;;4989074;28;20031;-77
2023/10/15 06:27:56;;;;;;;3.33;0.85;;;9.70;99.90;;;;;;4994380;28;20349;-77
2023/10/15 06:30:21;;;;;;;4.32;0.88;;;9.70;99.90;;;;;;4989463;28;20018;-77
2023/10/15 06:32:48;;;;;;;2.78;0.77;;;9.70;99.90;;;;;;4987374;28;20026;-76
2023/10/15 06:35:25;;;;;;;3.33;0.90;;;9.70;99.90;;;;;;4994305;28;20037;-70
2023/10/15 06:37:55;;;;;;;2.65;1.17;;;9.70;99.90;;;;;;4995272;28;20428;-69
2023/10/15 06:40:21;;;;;;;2.72;0.77;;;9.70;99.90;;;;;;4994474;28;20018;-70
2023/10/15 06:42:47;;;;;;;3.28;1.20;;;9.60;99.90;;;;;;4977251;28;20029;-70
2023/10/15 06:45:18;;;;;;;2.25;1.10;;;9.70;99.90;;;;;;4998413;28;20030;-70
2023/10/15 06:47:53;;;;;;;3.78;1.35;;;9.70;99.90;;;;;;5014375;28;20022;-71
2023/10/15 06:50:19;;;;;;;2.70;1.00;;;9.80;99.90;;;;;;4996540;28;20021;-70
2023/10/15 06:52:48;;;;;;;5.22;1.40;;;9.90;99.90;;;;;;4999759;28;20081;-68
2023/10/15 06:55:26;;;;;;;4.43;1.30;;;9.90;99.90;;;;;;4996241;28;20027;-68
2023/10/15 06:57:51;;;;;;;2.60;0.85;;;9.90;99.90;;;;;;4996685;28;20117;-69
2023/10/15 07:00:22;;;;;;;5.22;1.35;;;10.00;99.90;;;;;;4975134;28;20034;-68
2023/10/15 07:02:52;;;;;;;4.55;0.80;;;10.00;99.90;;;;;;4973509;28;20034;-69
2023/10/15 07:05:25;;;;;;;4.05;1.10;;;10.00;99.90;;;;;;4995272;28;20029;-69
2023/10/15 07:07:52;;;;;;;2.33;0.85;;;10.10;99.90;;;;;;4987309;28;20394;-69
2023/10/15 07:10:21;;;;;;;3.15;1.00;;;10.10;99.90;;;;;;4995108;28;20022;-69
2023/10/15 07:12:50;;;;;;;2.67;1.15;;;10.10;99.90;;;;;;4994961;28;20018;-69
2023/10/15 07:15:20;;;;;;;2.45;0.77;;;10.20;99.90;;;;;;4996528;28;20125;-67
2023/10/15 07:17:46;;;;;;;5.68;0.90;;;10.20;99.90;;;;;;4996999;28;20010;-66
2023/10/15 07:20:18;;;;;;;8.85;0.93;;;10.20;99.90;;;;;;4993937;28;20030;-66
2023/10/15 07:22:51;;;;;;;3.13;1.00;;;10.20;99.90;;;;;;5000291;28;20022;-66
2023/10/15 07:25:29;;;;;;;3.60;0.80;;;10.20;99.90;;;;;;4993967;28;20027;-67
2023/10/15 07:27:59;;;;;;;4.78;1.13;;;10.30;99.90;;;;;;4993016;28;20019;-66
2023/10/15 07:30:30;;;;;;;6.25;1.27;;;10.30;99.90;;;;;;4993613;28;20076;-67
2023/10/15 07:33:02;;;;;;;5.00;1.35;;;10.40;99.90;;;;;;4994038;28;20011;-67
2023/10/15 07:35:30;;;;;;;2.53;1.00;;;10.40;99.90;;;;;;4993793;28;20030;-67
2023/10/15 07:37:56;;;;;;;4.95;1.45;;;10.40;99.90;;;;;;4979438;28;20025;-78
2023/10/15 07:40:34;;;;;;;3.60;1.02;;;10.40;99.90;;;;;;4992404;28;20025;-74
2023/10/15 07:43:08;;;;;;;4.85;1.65;;;10.50;99.90;;;;;;4967030;28;20034;-75
2023/10/15 07:45:40;;;;;;;4.53;1.10;;;10.50;99.90;;;;;;4968442;28;20034;-74
2023/10/15 07:48:08;;;;;;;3.70;0.95;;;10.50;99.90;;;;;;4964990;28;20026;-75
2023/10/15 07:50:34;;;;;;;3.97;1.20;;;10.40;99.90;;;;;;4965866;28;20030;-75
2023/10/15 07:53:04;;;;;;;3.90;1.52;;;10.40;99.90;;;;;;4973209;28;20038;-76
2023/10/15 07:55:35;;;;;;;5.60;1.02;;;10.50;99.90;;;;;;4992503;28;20034;-76
2023/10/15 07:58:09;;;;;;;5.82;1.45;;;10.50;99.90;;;;;;4988334;28;20035;-75
2023/10/15 08:00:35;;;;;;;3.10;1.58;;;10.50;99.90;;;;;;4988906;28;20058;-76
2023/10/15 08:03:01;;;;;;;4.82;1.52;;;10.60;99.90;;;;;;4986948;28;20058;-76
2023/10/15 08:05:28;;;;;;;2.28;1.10;;;10.60;99.90;;;;;;4987589;28;20031;-76
2023/10/15 08:08:04;;;;;;;3.88;1.00;;;10.60;99.90;;;;;;4986737;28;20037;-75
2023/10/15 08:10:33;;;;;;;2.25;1.10;;;10.60;99.90;;;;;;4984912;28;20034;-75
2023/10/15 08:12:59;;;;;;;2.53;0.70;;;10.60;99.90;;;;;;4990094;28;20053;-75
2023/10/15 08:15:33;;;;;;;3.67;1.25;;;10.70;99.90;;;;;;4988616;28;20027;-74
2023/10/15 08:18:01;;;;;;;3.70;1.20;;;10.70;99.90;;;;;;4965086;28;20046;-74
2023/10/15 08:20:27;;;;;;;4.57;1.15;;;10.80;99.90;;;;;;4983082;28;20720;-74
2023/10/15 08:22:53;;;;;;;2.42;0.90;;;10.90;99.90;;;;;;4983016;28;20030;-74
2023/10/15 08:25:26;;;;;;;5.43;1.27;;;10.90;99.90;;;;;;4965087;28;20038;-76
2023/10/15 08:27:51;;;;;;;3.38;0.93;;;10.90;99.90;;;;;;4986497;28;20045;-75
2023/10/15 08:30:18;;;;;;;2.83;0.95;;;10.90;99.90;;;;;;4986662;28;20485;-75
2023/10/15 08:32:47;;;;;;;2.50;0.80;;;10.90;99.90;;;;;;4986735;28;20033;-75
2023/10/15 08:35:14;;;;;;;4.55;0.90;;;11.00;99.90;;;;;;4973008;28;20033;-75
2023/10/15 08:37:40;;;;;;;3.08;0.88;;;11.00;99.90;;;;;;4968593;28;20022;-75
2023/10/15 08:40:15;;;;;;;2.63;0.88;;;11.00;99.90;;;;;;4970029;28;20038;-75
2023/10/15 08:42:54;;;;;;;5.13;1.15;;;11.10;99.90;;;;;;4979933;28;20111;-75
2023/10/15 08:45:23;;;;;;;4.55;1.08;;;11.00;99.90;;;;;;4980667;28;20021;-73
2023/10/15 08:47:53;;;;;;;5.70;0.90;;;11.00;99.90;;;;;;4986337;28;20030;-73
2023/10/15 08:50:22;;;;;;;2.78;0.80;;;11.00;99.90;;;;;;4986199;28;20513;-74
2023/10/15 08:52:52;;;;;;;2.55;1.08;;;11.00;99.90;;;;;;4989827;28;20029;-74
2023/10/15 08:55:22;;;;;;;2.15;0.77;;;11.00;99.90;;;;;;4962292;28;20022;-74
2023/10/15 08:57:54;;;;;;;3.22;0.80;;;11.10;99.90;;;;;;4987093;28;20587;-74
2023/10/15 09:00:28;;;;;;;3.10;0.70;;;11.00;99.90;;;;;;4987237;28;20026;-76
2023/10/15 09:03:03;;;;;;;3.55;1.05;;;11.00;99.90;;;;;;4991084;28;20026;-76
2023/10/15 09:05:38;;;;;;;3.50;1.13;;;11.00;99.90;;;;;;4987898;28;20026;-76
2023/10/15 09:08:07;;;;;;;1.73;1.00;;;11.10;99.90;;;;;;4976685;28;20042;-76
2023/10/15 09:10:35;;;;;;;3.85;1.38;;;11.10;99.90;;;;;;4987102;28;20023;-76
2023/10/15 09:13:21;;;;;;;4.45;1.10;;;11.10;99.90;;;;;;4986749;28;20070;-76
2023/10/15 09:15:52;;;;;;;1.92;1.05;;;11.10;99.90;;;;;;4986299;28;20018;-76
2023/10/15 09:18:18;;;;;;;3.88;1.10;;;11.20;99.90;;;;;;4983798;28;20061;-75
2023/10/15 09:20:52;;;;;;;3.42;1.05;;;11.20;99.90;;;;;;4986071;28;20034;-76
2023/10/15 09:23:22;;;;;;;4.20;1.55;;;11.20;99.90;;;;;;4972852;28;20022;-77
2023/10/15 09:25:52;;;;;;;3.85;1.00;;;11.30;99.90;;;;;;4994521;28;20058;-76
2023/10/15 09:28:17;;;;;;;2.92;1.35;;;11.40;99.90;;;;;;4985952;28;20038;-76
2023/10/15 09:31:01;;;;;;;3.55;1.20;;;11.50;99.90;;;;;;4971258;28;20035;-76
2023/10/15 09:33:31;;;;;;;4.82;1.27;;;11.70;99.90;;;;;;4982137;28;20030;-76
2023/10/15 09:35:57;;;;;;;4.20;1.13;;;11.90;99.90;;;;;;4982884;28;20062;-76
2023/10/15 09:38:23;;;;;;;3.80;1.10;;;12.00;99.90;;;;;;4988728;28;20485;-76
2023/10/15 09:40:49;;;;;;;2.72;1.10;;;12.00;99.90;;;;;;4990464;28;20030;-76
2023/10/15 09:43:15;;;;;;;2.67;0.88;;;12.00;99.90;;;;;;4986298;28;20023;-76
2023/10/15 09:45:44;;;;;;;2.58;1.10;;;11.90;99.90;;;;;;4986755;28;20034;-76
2023/10/15 09:48:10;;;;;;;5.35;1.50;;;11.80;99.90;;;;;;4971531;28;20038;-76
2023/10/15 09:50:39;;;;;;;2.92;1.15;;;11.70;99.90;;;;;;4988812;28;20030;-75
2023/10/15 09:53:16;;;;;;;3.47;0.80;;;11.40;99.90;;;;;;4987845;28;20061;-75
2023/10/15 09:55:47;;;;;;;3.08;1.05;;;11.20;99.90;;;;;;4987176;28;20393;-75
2023/10/15 09:58:14;;;;;;;3.47;0.70;;;11.10;99.90;;;;;;4982596;28;20035;-75
2023/10/15 10:03:47;;;;;;;2.60;0.98;;;10.90;99.90;;;;;;4988445;28;20441;-76
2023/10/15 10:06:37;;;;;;;3.53;1.65;;;10.80;99.90;;;;;;4990330;28;20030;-76
2023/10/15 10:09:28;;;;;;;3.47;1.38;;;10.80;99.90;;;;;;4985994;28;20117;-76
2023/10/15 10:12:28;;;;;;;3.65;1.40;;;10.80;99.90;;;;;;4989314;28;20030;-76
2023/10/15 10:15:17;;;;;;;5.50;1.30;;;10.90;99.90;;;;;;4983007;28;20389;-76
2023/10/15 10:17:43;;;;;;;4.95;1.23;;;11.00;99.90;;;;;;4987202;28;20054;-76
2023/10/15 10:20:13;;;;;;;3.30;1.30;;;11.10;99.90;;;;;;4984349;28;20061;-76
2023/10/15 10:22:40;;;;;;;3.58;1.35;;;11.10;99.90;;;;;;4989755;28;20010;-75
2023/10/15 10:25:42;;;;;;;6.43;1.35;;;11.10;99.90;;;;;;4988803;28;20022;-75
2023/10/15 10:28:16;;;;;;;7.28;1.50;;;11.10;99.90;;;;;;4985152;28;20058;-76
2023/10/15 10:30:58;;;;;;;3.13;1.00;;;11.10;99.90;;;;;;4981750;28;20022;-76
2023/10/15 10:33:49;;;;;;;2.88;0.77;;;11.10;99.90;;;;;;4984324;28;20705;-75
2023/10/15 10:36:28;;;;;;;7.15;1.60;;;11.10;99.90;;;;;;4984176;28;20489;-75
2023/10/15 10:39:15;;;;;;;4.10;1.13;;;11.00;99.90;;;;;;4988003;28;20125;-77
2023/10/15 10:41:43;;;;;;;3.70;1.20;;;11.00;99.90;;;;;;4991919;28;20388;-77
2023/10/15 10:44:38;;;;;;;6.72;1.23;;;10.60;99.90;;;;;;4977953;28;20034;-76
2023/10/15 10:47:22;;;;;;;4.18;1.50;;;10.40;99.90;;;;;;4971738;28;20026;-77
2023/10/15 10:49:56;;;;;;;4.30;1.15;;;10.30;99.90;;;;;;4989111;28;20026;-76
2023/10/15 10:52:30;;;;;;;3.83;0.80;;;10.40;99.90;;;;;;4988085;28;20100;-77
2023/10/15 10:55:30;;;;;;;5.07;1.35;;;10.40;99.90;;;;;;4988273;28;20023;-77
2023/10/15 10:58:03;;;;;;;4.78;1.60;;;10.40;99.90;;;;;;4987724;28;20038;-73
2023/10/15 11:00:38;;;;;;;5.15;1.58;;;10.40;99.90;;;;;;4973468;28;20062;-77
2023/10/15 11:03:06;;;;;;;4.68;1.52;;;10.50;99.90;;;;;;4978643;28;20022;-75
2023/10/15 11:05:35;;;;;;;4.85;1.63;;;10.50;99.90;;;;;;4994974;28;20106;-76
2023/10/15 11:08:15;;;;;;;3.30;1.50;;;10.50;99.90;;;;;;4989073;28;20042;-76
2023/10/15 11:10:44;;;;;;;4.07;1.30;;;10.60;99.90;;;;;;4967933;28;20034;-74
2023/10/15 11:13:10;;;;;;;4.57;1.40;;;10.60;99.90;;;;;;4974250;28;20042;-75
2023/10/15 11:15:38;;;;;;;3.13;0.90;;;10.60;99.90;;;;;;4986799;28;20024;-77
2023/10/15 11:18:19;;;;;;;2.72;0.90;;;10.70;99.90;;;;;;4986319;28;20034;-71
2023/10/15 11:20:45;;;;;;;2.90;1.20;;;10.80;99.90;;;;;;4991621;28;20105;-71
2023/10/15 11:23:17;;;;;;;2.30;1.08;;;11.00;99.90;;;;;;4974036;28;20112;-70
2023/10/15 11:25:42;;;;;;;4.57;1.95;;;11.20;99.90;;;;;;4987637;28;20339;-74
2023/10/15 11:28:11;;;;;;;3.90;1.25;;;11.30;99.90;;;;;;4988605;28;20065;-74
2023/10/15 11:30:41;;;;;;;3.45;0.90;;;11.30;99.90;;;;;;4984911;28;20026;-78
2023/10/15 11:33:09;;;;;;;6.18;1.35;;;11.20;99.90;;;;;;4986673;28;20114;-75
2023/10/15 11:35:43;;;;;;;3.13;1.35;;;11.20;99.90;;;;;;4976725;28;20058;-78
2023/10/15 11:38:10;;;;;;;4.82;1.70;;;11.30;99.90;;;;;;4994348;28;20134;-77
2023/10/15 11:40:39;;;;;;;4.53;1.20;;;11.30;99.90;;;;;;4984864;28;20213;-77
2023/10/15 11:43:17;;;;;;;7.68;1.20;;;11.30;99.90;;;;;;4986374;28;20034;-77
2023/10/15 11:45:46;;;;;;;4.95;1.33;;;11.40;99.90;;;;;;4984998;28;20967;-77
2023/10/15 11:48:21;;;;;;;3.90;1.08;;;11.40;99.90;;;;;;4981031;28;20039;-77
2023/10/15 11:50:50;;;;;;;3.08;1.67;;;11.40;99.90;;;;;;4980881;28;20053;-77
2023/10/15 11:53:23;;;;;;;5.05;1.30;;;11.50;99.90;;;;;;4999418;28;20019;-77
2023/10/15 11:56:11;;;;;;;2.30;1.08;;;11.50;99.90;;;;;;4998516;28;20371;-77
2023/10/15 11:58:35;;;;;;;3.15;1.10;;;11.50;99.90;;;;;;4997391;28;20489;-77
2023/10/15 12:01:01;;;;;;;6.00;1.40;;;11.60;99.90;;;;;;5001362;28;20033;-77
2023/10/15 12:03:27;;;;;;;3.97;1.08;;;11.60;99.90;;;;;;4997889;28;20094;-77
2023/10/15 12:05:55;;;;;;;5.22;1.45;;;11.50;99.90;;;;;;4992971;28;20031;-76
2023/10/15 12:08:27;;;;;;;4.20;1.17;;;11.60;99.90;;;;;;4971725;28;20042;-77
2023/10/15 12:10:53;;;;;;;4.07;1.33;;;11.70;99.90;;;;;;4999551;28;20022;-77
2023/10/15 12:13:22;;;;;;;4.07;1.20;;;11.70;99.90;;;;;;4977576;28;20028;-77
2023/10/15 12:15:50;;;;;;;3.13;1.00;;;11.70;99.90;;;;;;4991671;28;20026;-75
2023/10/15 12:18:25;;;;;;;2.38;1.00;;;11.80;99.90;;;;;;4993247;28;20103;-77
2023/10/15 12:20:59;;;;;;;3.10;1.35;;;11.70;99.90;;;;;;4979606;28;20096;-77
2023/10/15 12:23:27;;;;;;;3.17;1.33;;;11.70;99.90;;;;;;4983454;28;20046;-77
2023/10/15 12:25:56;;;;;;;4.25;1.15;;;11.70;99.90;;;;;;4982276;28;20058;-76
2023/10/15 12:28:28;;;;;;;4.50;1.50;;;11.60;99.90;;;;;;4996006;28;20045;-76
2023/10/15 12:30:54;;;;;;;2.60;0.87;;;11.50;99.90;;;;;;4999725;28;20024;-77
2023/10/15 12:33:23;;;;;;;3.53;1.23;;;11.30;99.90;;;;;;4986891;28;20113;-76
2023/10/15 12:35:50;;;;;;;2.55;1.10;;;11.20;99.90;;;;;;4993755;28;20025;-75
2023/10/15 12:38:26;;;;;;;2.97;1.02;;;11.30;99.90;;;;;;4994263;28;20030;-76
2023/10/15 12:40:52;;;;;;;3.33;1.20;;;11.20;99.80;;;;;;5003462;28;20041;-77
2023/10/15 12:43:21;;;;;;;2.92;1.20;;;11.20;98.90;;;;;;4982166;28;20550;-77
2023/10/15 12:45:56;;;;;;;4.07;1.00;;;11.20;98.70;;;;;;4991286;28;20030;-77
2023/10/15 12:48:33;;;;;;;2.40;0.70;;;11.30;98.80;;;;;;5001940;28;20032;-77
2023/10/15 12:50:59;;;;;;;2.10;0.95;;;11.30;98.60;;;;;;4997137;28;20022;-77
2023/10/15 12:53:33;;;;;;;3.88;0.90;;;11.20;98.40;;;;;;5001908;28;20032;-78
2023/10/15 12:56:00;;;;;;;3.20;1.00;;;11.20;97.30;;;;;;4993417;28;20084;-77
2023/10/15 12:58:32;;;;;;;4.65;0.70;;;11.20;98.50;;;;;;4981928;28;20057;-77
2023/10/15 13:00:59;;;;;;;5.28;1.20;;;11.20;98.30;;;;;;5000416;28;20093;-77
2023/10/15 13:03:31;;;;;;;2.78;0.80;;;11.20;98.10;;;;;;4995987;28;20029;-77
2023/10/15 13:06:00;;;;;;;1.85;0.93;;;11.20;97.50;;;;;;5001962;28;20018;-77
2023/10/15 13:08:31;;;;;;;2.47;0.70;;;11.30;96.60;;;;;;4996770;28;20057;-77
2023/10/15 13:11:06;;;;;;;3.50;0.88;;;11.40;96.60;;;;;;5001960;28;20015;-77
2023/10/15 13:13:38;;;;;;;3.50;0.85;;;11.40;95.90;;;;;;4999301;28;20022;-77
2023/10/15 13:16:13;;;;;;;1.60;0.68;;;11.50;95.50;;;;;;5001611;28;20029;-77
2023/10/15 13:18:39;;;;;;;2.13;1.10;;;11.50;94.80;;;;;;4999317;28;20023;-77
2023/10/15 13:21:09;;;;;;;5.38;1.42;;;11.50;94.70;;;;;;5003156;28;20019;-77
2023/10/15 13:23:36;;;;;;;2.53;0.80;;;11.50;95.20;;;;;;4999561;28;20032;-77
2023/10/15 13:26:01;;;;;;;2.60;0.80;;;11.50;95.20;;;;;;4985718;28;20060;-77
2023/10/15 13:28:27;;;;;;;2.35;0.70;;;11.50;94.90;;;;;;4982823;28;20093;-77
2023/10/15 13:30:52;;;;;;;2.60;0.90;;;11.40;95.30;;;;;;4983751;28;20026;-78
2023/10/15 13:33:24;;;;;;;3.63;1.38;;;11.40;95.70;;;;;;5006101;28;20074;-77
2023/10/15 13:35:49;;;;;;;3.42;0.90;;;11.40;95.90;;;;;;4989091;28;20078;-77
2023/10/15 13:38:18;;;;;;;4.28;0.90;;;11.40;96.10;;;;;;4999593;28;20031;-77